Forseti — V2PV4 — position and weather

sailwx.info

Track history (hours):
 
Tides and Currents Weather Stations Pressure Air Temp Water Temp Dewpoint Dewpoint Depression Visibility Wind Speed Wind Dir Waves Ship Positions

Forseti

Last reported at 2015-Mar-04 10:23 UTC. Time now 2015-Mar-05 14:36 UTC.
Position N 55°13' E 018°41'.

Length 85 m; draft 3.8 m.

Type: Cargo ship. MMSI: 304010297.

Date/timePositionNaut miles runAvg speedWind from/ knotsBaromVisibWave heightAir tempDewpointWater temp
2015-Mar-04 10:23N 55°13' E 018°41'810.1
2015-Mar-04 09:33N 55°09' E 018°28'10 9.8
2015-Mar-04 08:31N 55°05' E 018°12'14310.2
2015-Mar-03 18:33N 54°22' E 014°15'1010.1
2015-Mar-03 17:33N 54°19' E 013°59'10 9.8
2015-Mar-03 16:33N 54°15' E 013°43'9 8.8
2015-Mar-03 15:33N 54°08' E 013°34'0 0.3
2015-Mar-03 14:33N 54°08' E 013°34'0 0.0
2015-Mar-03 13:33N 54°08' E 013°34'0 0.0
2015-Mar-03 12:33N 54°08' E 013°34'0 0.0
2015-Mar-03 11:33N 54°08' E 013°34'0 0.0
2015-Mar-03 10:33N 54°08' E 013°34'0 0.0
2015-Mar-03 09:33N 54°08' E 013°34'0 0.0
2015-Mar-03 08:33N 54°08' E 013°34'0 0.0
2015-Mar-03 07:33N 54°08' E 013°34'0 0.0
2015-Mar-03 06:33N 54°08' E 013°34'0 0.0
2015-Mar-03 05:33N 54°08' E 013°34'0 0.0
2015-Mar-03 04:33N 54°08' E 013°34'0 0.0
2015-Mar-03 03:33N 54°08' E 013°34'0 0.0
2015-Mar-03 02:33N 54°08' E 013°34'0 0.0
2015-Mar-03 01:33N 54°08' E 013°34'0 0.0
2015-Mar-03 00:33N 54°08' E 013°34'0 0.0
2015-Mar-02 23:33N 54°08' E 013°34'0 0.0
2015-Mar-02 22:33N 54°08' E 013°34'0 0.0
2015-Mar-02 21:33N 54°08' E 013°34'0 0.0
2015-Mar-02 20:33N 54°08' E 013°34'0 0.0
2015-Mar-02 19:33N 54°08' E 013°34'0 0.0
2015-Mar-02 18:34N 54°08' E 013°34'6 6.0
2015-Mar-02 17:33N 54°13' E 013°40'6 6.5
2015-Mar-02 16:33N 54°18' E 013°47'2 1.6
2015-Mar-02 15:34N 54°20' E 013°48'3 3.0
2015-Mar-02 14:33N 54°22' E 013°47'5 4.7
2015-Mar-02 13:30N 54°26' E 013°40'0 0.0
2015-Mar-02 12:33N 54°26' E 013°40'0 0.0
2015-Mar-02 11:33N 54°26' E 013°40'0 0.0
2015-Mar-02 10:33N 54°26' E 013°40'0 0.1
2015-Mar-02 09:33N 54°26' E 013°40'0 0.0
2015-Mar-02 08:33N 54°26' E 013°40'0 0.0
2015-Mar-02 07:33N 54°26' E 013°40'0 0.0
2015-Mar-02 06:33N 54°26' E 013°40'0 0.0
2015-Mar-02 05:33N 54°26' E 013°40'0 0.0
2015-Mar-02 04:33N 54°26' E 013°40'0 0.0
2015-Mar-02 03:33N 54°26' E 013°40'0 0.0
2015-Mar-02 02:32N 54°26' E 013°40'0 0.0
2015-Mar-02 01:32N 54°26' E 013°40'0 0.0
2015-Mar-02 00:32N 54°26' E 013°40'0 0.0
2015-Mar-01 23:32N 54°26' E 013°40'0 0.0
2015-Mar-01 22:32N 54°26' E 013°40'0 0.0
2015-Mar-01 21:32N 54°26' E 013°40'0 0.0
2015-Mar-01 20:32N 54°26' E 013°40'0 0.0
2015-Mar-01 19:32N 54°26' E 013°40'0 0.0
2015-Mar-01 18:32N 54°26' E 013°40'0 0.0
2015-Mar-01 17:32N 54°26' E 013°40'0 0.0
2015-Mar-01 16:32N 54°26' E 013°40'0 0.0
2015-Mar-01 15:32N 54°26' E 013°40'0 0.0
2015-Mar-01 14:32N 54°26' E 013°40'0 0.0
2015-Mar-01 13:29N 54°26' E 013°40'0 0.0
2015-Mar-01 12:32N 54°26' E 013°40'0 0.0
2015-Mar-01 11:29N 54°26' E 013°40'0 0.0
2015-Mar-01 10:32N 54°26' E 013°40'0 0.0
2015-Mar-01 09:32N 54°26' E 013°40'0 0.0
2015-Mar-01 08:32N 54°26' E 013°40'0 0.0
2015-Mar-01 07:32N 54°26' E 013°40'0 0.0
2015-Mar-01 06:32N 54°26' E 013°40'0 0.0
2015-Mar-01 05:32N 54°26' E 013°40'0 0.0
2015-Mar-01 04:32N 54°26' E 013°40'0 0.0
2015-Mar-01 03:32N 54°26' E 013°40'0 0.0
2015-Mar-01 02:32N 54°26' E 013°40'0 0.0
2015-Mar-01 01:32N 54°26' E 013°40'0 0.0
2015-Mar-01 00:29N 54°26' E 013°40'0 0.0
2015-Feb-28 23:32N 54°26' E 013°40'0 0.0
2015-Feb-28 22:32N 54°26' E 013°40'0 0.0
2015-Feb-28 21:32N 54°26' E 013°40'0 0.0
2015-Feb-28 20:32N 54°26' E 013°40'0 0.0
2015-Feb-28 19:32N 54°26' E 013°40'0 0.0
2015-Feb-28 18:32N 54°26' E 013°40'0 0.0
2015-Feb-28 17:32N 54°26' E 013°40'0 0.0
2015-Feb-28 16:32N 54°26' E 013°40'0 0.0
2015-Feb-28 15:32N 54°26' E 013°40'0 0.0
2015-Feb-28 14:32N 54°26' E 013°40'0 0.1
2015-Feb-28 13:32N 54°26' E 013°40'0 0.0
2015-Feb-28 12:32N 54°26' E 013°40'0 0.0
2015-Feb-28 11:31N 54°26' E 013°40'0 0.0
2015-Feb-28 10:31N 54°26' E 013°40'3 3.2
2015-Feb-28 09:34N 54°29' E 013°42'8 8.4
2015-Feb-28 08:34N 54°37' E 013°40'10 9.7
2015-Feb-28 07:33N 54°46' E 013°32'10 9.8
2015-Feb-28 06:31N 54°55' E 013°27'27 9.3
2015-Feb-28 03:34N 55°14' E 012°52'9 9.2
2015-Feb-28 02:33N 55°19' E 012°38'9 9.5
2015-Feb-28 01:33N 55°28' E 012°41'10 9.5
2015-Feb-28 00:33N 55°38' E 012°42'9 8.9
2015-Feb-27 23:33N 55°46' E 012°40'9 9.3
2015-Feb-27 22:33N 55°56' E 012°38'9 8.8
2015-Feb-27 21:33N 56°04' E 012°36'10 9.5
2015-Feb-27 20:33N 56°12' E 012°26'8 8.2
2015-Feb-27 19:33N 56°20' E 012°21'10 9.6
2015-Feb-27 18:33N 56°29' E 012°18'10 9.6
2015-Feb-27 17:33N 56°39' E 012°14'10 9.9
2015-Feb-27 16:33N 56°48' E 012°09'1010.0
2015-Feb-27 15:33N 56°58' E 012°05'1110.3
2015-Feb-27 14:31N 57°08' E 011°58'1110.0
2015-Feb-27 13:25N 57°18' E 011°49'8 9.7
2015-Feb-27 12:33N 57°26' E 011°43'9 9.0
2015-Feb-27 11:33N 57°34' E 011°38'8 8.0
2015-Feb-27 10:33N 57°40' E 011°48'0 0.1
2015-Feb-27 09:31N 57°40' E 011°48'1 1.2
2015-Feb-27 08:33N 57°40' E 011°46'8 7.9
2015-Feb-27 07:33N 57°37' E 011°32'9 8.5
2015-Feb-27 06:33N 57°40' E 011°17'9 8.7
2015-Feb-27 05:33N 57°43' E 011°02'9 9.0
2015-Feb-27 04:33N 57°46' E 010°46'100 9.7
2015-Feb-26 18:20N 56°59' E 008°03'191 9.1
2015-Feb-25 21:13N 54°16' E 005°05'8 8.8
2015-Feb-25 20:20N 54°09' E 004°60'7 8.6
2015-Feb-25 19:33N 54°02' E 004°58'9 8.5
2015-Feb-25 18:31N 53°53' E 004°55'16 8.2
2015-Feb-25 16:32N 53°38' E 004°50'8 8.3
2015-Feb-25 15:33N 53°30' E 004°45'9 8.4
2015-Feb-25 14:32N 53°22' E 004°40'27 8.8
2015-Feb-25 11:32N 52°58' E 004°21'9 9.6
2015-Feb-25 10:33N 52°49' E 004°14'1010.1
2015-Feb-25 09:33N 52°42' E 004°04'1010.4
2015-Feb-25 08:33N 52°34' E 003°52'4210.1
2015-Feb-25 04:20N 51°56' E 003°22'6 8.2
2015-Feb-25 03:33N 51°50' E 003°19'7 7.3
2015-Feb-25 02:33N 51°42' E 003°17'8 8.3
2015-Feb-25 01:33N 51°35' E 003°24'8 7.6
2015-Feb-25 00:33N 51°29' E 003°30'7 7.2
2015-Feb-24 23:33N 51°26' E 003°41'8 8.3
2015-Feb-24 22:33N 51°20' E 003°49'5 4.6
2015-Feb-24 21:34N 51°15' E 003°49'8 8.2
2015-Feb-24 20:33N 51°07' E 003°45'2 1.9
2015-Feb-24 19:33N 51°05' E 003°45'0 0.0
2015-Feb-24 18:30N 51°05' E 003°45'0 0.0
2015-Feb-24 17:33N 51°05' E 003°45'0 0.0
2015-Feb-24 16:29N 51°05' E 003°45'0 0.0
2015-Feb-24 15:26N 51°05' E 003°45'0 0.0
2015-Feb-24 14:29N 51°05' E 003°45'0 0.0
2015-Feb-24 13:29N 51°05' E 003°45'0 0.0
2015-Feb-24 12:32N 51°05' E 003°45'0 0.0
2015-Feb-24 11:29N 51°05' E 003°45'0 0.0
2015-Feb-24 10:29N 51°05' E 003°45'0 0.0
2015-Feb-24 09:32N 51°05' E 003°45'0 0.0
2015-Feb-24 08:32N 51°05' E 003°45'0 0.0
2015-Feb-24 07:32N 51°05' E 003°45'0 0.0
2015-Feb-24 06:29N 51°05' E 003°45'0 0.0
2015-Feb-24 05:32N 51°05' E 003°45'3 2.9
2015-Feb-24 04:33N 51°08' E 003°46'7 7.1
2015-Feb-24 03:33N 51°15' E 003°49'5 5.1
2015-Feb-24 02:33N 51°20' E 003°49'7 6.8
2015-Feb-24 01:34N 51°25' E 003°42'9 9.2
2015-Feb-24 00:33N 51°30' E 003°29'11 9.7
2015-Feb-23 23:28N 51°39' E 003°20'7 8.1
2015-Feb-23 22:33N 51°45' E 003°13'54 7.7
2015-Feb-23 15:33N 52°20' E 002°07'9 9.1
2015-Feb-23 14:33N 52°27' E 001°57'10 9.9
2015-Feb-23 13:33N 52°34' E 001°46'1 1.2
2015-Feb-23 12:33N 52°35' E 001°44'0 0.0
2015-Feb-23 11:33N 52°35' E 001°44'0 0.0
2015-Feb-23 10:33N 52°35' E 001°44'0 0.0
2015-Feb-23 09:33N 52°35' E 001°44'0 0.0
2015-Feb-23 08:33N 52°35' E 001°44'0 0.0
2015-Feb-23 07:33N 52°35' E 001°44'0 0.0
2015-Feb-23 06:33N 52°35' E 001°44'0 0.0
2015-Feb-23 05:33N 52°35' E 001°44'0 0.0
2015-Feb-23 04:33N 52°35' E 001°44'0 0.0
2015-Feb-23 03:33N 52°35' E 001°44'0 0.0
2015-Feb-23 02:33N 52°35' E 001°44'0 0.0
2015-Feb-23 01:33N 52°35' E 001°44'0 0.0
2015-Feb-23 00:33N 52°35' E 001°44'0 0.0
2015-Feb-22 23:33N 52°35' E 001°44'0 0.0
2015-Feb-22 22:33N 52°35' E 001°44'0 0.0
2015-Feb-22 21:33N 52°35' E 001°44'0 0.0
2015-Feb-22 20:33N 52°35' E 001°44'0 0.0
2015-Feb-22 19:33N 52°35' E 001°44'0 0.0
2015-Feb-22 18:33N 52°35' E 001°44'0 0.0
2015-Feb-22 17:33N 52°35' E 001°44'0 0.0
2015-Feb-22 16:33N 52°35' E 001°44'0 0.0
2015-Feb-22 15:33N 52°35' E 001°44'0 0.0
2015-Feb-22 14:33N 52°35' E 001°44'0 0.0
2015-Feb-22 13:33N 52°35' E 001°44'0 0.0
2015-Feb-22 12:33N 52°35' E 001°44'0 0.0
2015-Feb-22 11:33N 52°35' E 001°44'0 0.0
2015-Feb-22 10:33N 52°35' E 001°44'  
Track history (hours):
 
Tides and Currents Weather Stations Pressure Air Temp Water Temp Dewpoint Dewpoint Depression Visibility Wind Speed Wind Dir Waves Ship Positions

Forseti

Last reported at 2015-Mar-04 10:23 UTC. Time now 2015-Mar-05 14:36 UTC.
Position N 55°13' E 018°41'.

Length 85 m; draft 3.8 m.

Type: Cargo ship. MMSI: 304010297.

Date/timePositionNaut miles runAvg speedWind from/ knotsBaromVisibWave heightAir tempDewpointWater temp
2015-Mar-04 10:23N 55°13' E 018°41'810.1
2015-Mar-04 09:33N 55°09' E 018°28'10 9.8
2015-Mar-04 08:31N 55°05' E 018°12'14310.2
2015-Mar-03 18:33N 54°22' E 014°15'1010.1
2015-Mar-03 17:33N 54°19' E 013°59'10 9.8
2015-Mar-03 16:33N 54°15' E 013°43'9 8.8
2015-Mar-03 15:33N 54°08' E 013°34'0 0.3
2015-Mar-03 14:33N 54°08' E 013°34'0 0.0
2015-Mar-03 13:33N 54°08' E 013°34'0 0.0
2015-Mar-03 12:33N 54°08' E 013°34'0 0.0
2015-Mar-03 11:33N 54°08' E 013°34'0 0.0
2015-Mar-03 10:33N 54°08' E 013°34'0 0.0
2015-Mar-03 09:33N 54°08' E 013°34'0 0.0
2015-Mar-03 08:33N 54°08' E 013°34'0 0.0
2015-Mar-03 07:33N 54°08' E 013°34'0 0.0
2015-Mar-03 06:33N 54°08' E 013°34'0 0.0
2015-Mar-03 05:33N 54°08' E 013°34'0 0.0
2015-Mar-03 04:33N 54°08' E 013°34'0 0.0
2015-Mar-03 03:33N 54°08' E 013°34'0 0.0
2015-Mar-03 02:33N 54°08' E 013°34'0 0.0
2015-Mar-03 01:33N 54°08' E 013°34'0 0.0
2015-Mar-03 00:33N 54°08' E 013°34'0 0.0
2015-Mar-02 23:33N 54°08' E 013°34'0 0.0
2015-Mar-02 22:33N 54°08' E 013°34'0 0.0
2015-Mar-02 21:33N 54°08' E 013°34'0 0.0
2015-Mar-02 20:33N 54°08' E 013°34'0 0.0
2015-Mar-02 19:33N 54°08' E 013°34'0 0.0
2015-Mar-02 18:34N 54°08' E 013°34'6 6.0
2015-Mar-02 17:33N 54°13' E 013°40'6 6.5
2015-Mar-02 16:33N 54°18' E 013°47'2 1.6
2015-Mar-02 15:34N 54°20' E 013°48'3 3.0
2015-Mar-02 14:33N 54°22' E 013°47'5 4.7
2015-Mar-02 13:30N 54°26' E 013°40'0 0.0
2015-Mar-02 12:33N 54°26' E 013°40'0 0.0
2015-Mar-02 11:33N 54°26' E 013°40'0 0.0
2015-Mar-02 10:33N 54°26' E 013°40'0 0.1
2015-Mar-02 09:33N 54°26' E 013°40'0 0.0
2015-Mar-02 08:33N 54°26' E 013°40'0 0.0
2015-Mar-02 07:33N 54°26' E 013°40'0 0.0
2015-Mar-02 06:33N 54°26' E 013°40'0 0.0
2015-Mar-02 05:33N 54°26' E 013°40'0 0.0
2015-Mar-02 04:33N 54°26' E 013°40'0 0.0
2015-Mar-02 03:33N 54°26' E 013°40'0 0.0
2015-Mar-02 02:32N 54°26' E 013°40'0 0.0
2015-Mar-02 01:32N 54°26' E 013°40'0 0.0
2015-Mar-02 00:32N 54°26' E 013°40'0 0.0
2015-Mar-01 23:32N 54°26' E 013°40'0 0.0
2015-Mar-01 22:32N 54°26' E 013°40'0 0.0
2015-Mar-01 21:32N 54°26' E 013°40'0 0.0
2015-Mar-01 20:32N 54°26' E 013°40'0 0.0
2015-Mar-01 19:32N 54°26' E 013°40'0 0.0
2015-Mar-01 18:32N 54°26' E 013°40'0 0.0
2015-Mar-01 17:32N 54°26' E 013°40'0 0.0
2015-Mar-01 16:32N 54°26' E 013°40'0 0.0
2015-Mar-01 15:32N 54°26' E 013°40'0 0.0
2015-Mar-01 14:32N 54°26' E 013°40'0 0.0
2015-Mar-01 13:29N 54°26' E 013°40'0 0.0
2015-Mar-01 12:32N 54°26' E 013°40'0 0.0
2015-Mar-01 11:29N 54°26' E 013°40'0 0.0
2015-Mar-01 10:32N 54°26' E 013°40'0 0.0
2015-Mar-01 09:32N 54°26' E 013°40'0 0.0
2015-Mar-01 08:32N 54°26' E 013°40'0 0.0
2015-Mar-01 07:32N 54°26' E 013°40'0 0.0
2015-Mar-01 06:32N 54°26' E 013°40'0 0.0
2015-Mar-01 05:32N 54°26' E 013°40'0 0.0
2015-Mar-01 04:32N 54°26' E 013°40'0 0.0
2015-Mar-01 03:32N 54°26' E 013°40'0 0.0
2015-Mar-01 02:32N 54°26' E 013°40'0 0.0
2015-Mar-01 01:32N 54°26' E 013°40'0 0.0
2015-Mar-01 00:29N 54°26' E 013°40'0 0.0
2015-Feb-28 23:32N 54°26' E 013°40'0 0.0
2015-Feb-28 22:32N 54°26' E 013°40'0 0.0
2015-Feb-28 21:32N 54°26' E 013°40'0 0.0
2015-Feb-28 20:32N 54°26' E 013°40'0 0.0
2015-Feb-28 19:32N 54°26' E 013°40'0 0.0
2015-Feb-28 18:32N 54°26' E 013°40'0 0.0
2015-Feb-28 17:32N 54°26' E 013°40'0 0.0
2015-Feb-28 16:32N 54°26' E 013°40'0 0.0
2015-Feb-28 15:32N 54°26' E 013°40'0 0.0
2015-Feb-28 14:32N 54°26' E 013°40'0 0.1
2015-Feb-28 13:32N 54°26' E 013°40'0 0.0
2015-Feb-28 12:32N 54°26' E 013°40'0 0.0
2015-Feb-28 11:31N 54°26' E 013°40'0 0.0
2015-Feb-28 10:31N 54°26' E 013°40'3 3.2
2015-Feb-28 09:34N 54°29' E 013°42'8 8.4
2015-Feb-28 08:34N 54°37' E 013°40'10 9.7
2015-Feb-28 07:33N 54°46' E 013°32'10 9.8
2015-Feb-28 06:31N 54°55' E 013°27'27 9.3
2015-Feb-28 03:34N 55°14' E 012°52'9 9.2
2015-Feb-28 02:33N 55°19' E 012°38'9 9.5
2015-Feb-28 01:33N 55°28' E 012°41'10 9.5
2015-Feb-28 00:33N 55°38' E 012°42'9 8.9
2015-Feb-27 23:33N 55°46' E 012°40'9 9.3
2015-Feb-27 22:33N 55°56' E 012°38'9 8.8
2015-Feb-27 21:33N 56°04' E 012°36'10 9.5
2015-Feb-27 20:33N 56°12' E 012°26'8 8.2
2015-Feb-27 19:33N 56°20' E 012°21'10 9.6
2015-Feb-27 18:33N 56°29' E 012°18'10 9.6
2015-Feb-27 17:33N 56°39' E 012°14'10 9.9
2015-Feb-27 16:33N 56°48' E 012°09'1010.0
2015-Feb-27 15:33N 56°58' E 012°05'1110.3
2015-Feb-27 14:31N 57°08' E 011°58'1110.0
2015-Feb-27 13:25N 57°18' E 011°49'8 9.7
2015-Feb-27 12:33N 57°26' E 011°43'9 9.0
2015-Feb-27 11:33N 57°34' E 011°38'8 8.0
2015-Feb-27 10:33N 57°40' E 011°48'0 0.1
2015-Feb-27 09:31N 57°40' E 011°48'1 1.2
2015-Feb-27 08:33N 57°40' E 011°46'8 7.9
2015-Feb-27 07:33N 57°37' E 011°32'9 8.5
2015-Feb-27 06:33N 57°40' E 011°17'9 8.7
2015-Feb-27 05:33N 57°43' E 011°02'9 9.0
2015-Feb-27 04:33N 57°46' E 010°46'100 9.7
2015-Feb-26 18:20N 56°59' E 008°03'191 9.1
2015-Feb-25 21:13N 54°16' E 005°05'8 8.8
2015-Feb-25 20:20N 54°09' E 004°60'7 8.6
2015-Feb-25 19:33N 54°02' E 004°58'9 8.5
2015-Feb-25 18:31N 53°53' E 004°55'16 8.2
2015-Feb-25 16:32N 53°38' E 004°50'8 8.3
2015-Feb-25 15:33N 53°30' E 004°45'9 8.4
2015-Feb-25 14:32N 53°22' E 004°40'27 8.8
2015-Feb-25 11:32N 52°58' E 004°21'9 9.6
2015-Feb-25 10:33N 52°49' E 004°14'1010.1
2015-Feb-25 09:33N 52°42' E 004°04'1010.4
2015-Feb-25 08:33N 52°34' E 003°52'4210.1
2015-Feb-25 04:20N 51°56' E 003°22'6 8.2
2015-Feb-25 03:33N 51°50' E 003°19'7 7.3
2015-Feb-25 02:33N 51°42' E 003°17'8 8.3
2015-Feb-25 01:33N 51°35' E 003°24'8 7.6
2015-Feb-25 00:33N 51°29' E 003°30'7 7.2
2015-Feb-24 23:33N 51°26' E 003°41'8 8.3
2015-Feb-24 22:33N 51°20' E 003°49'5 4.6
2015-Feb-24 21:34N 51°15' E 003°49'8 8.2
2015-Feb-24 20:33N 51°07' E 003°45'2 1.9
2015-Feb-24 19:33N 51°05' E 003°45'0 0.0
2015-Feb-24 18:30N 51°05' E 003°45'0 0.0
2015-Feb-24 17:33N 51°05' E 003°45'0 0.0
2015-Feb-24 16:29N 51°05' E 003°45'0 0.0
2015-Feb-24 15:26N 51°05' E 003°45'0 0.0
2015-Feb-24 14:29N 51°05' E 003°45'0 0.0
2015-Feb-24 13:29N 51°05' E 003°45'0 0.0
2015-Feb-24 12:32N 51°05' E 003°45'0 0.0
2015-Feb-24 11:29N 51°05' E 003°45'0 0.0
2015-Feb-24 10:29N 51°05' E 003°45'0 0.0
2015-Feb-24 09:32N 51°05' E 003°45'0 0.0
2015-Feb-24 08:32N 51°05' E 003°45'0 0.0
2015-Feb-24 07:32N 51°05' E 003°45'0 0.0
2015-Feb-24 06:29N 51°05' E 003°45'0 0.0
2015-Feb-24 05:32N 51°05' E 003°45'3 2.9
2015-Feb-24 04:33N 51°08' E 003°46'7 7.1
2015-Feb-24 03:33N 51°15' E 003°49'5 5.1
2015-Feb-24 02:33N 51°20' E 003°49'7 6.8
2015-Feb-24 01:34N 51°25' E 003°42'9 9.2
2015-Feb-24 00:33N 51°30' E 003°29'11 9.7
2015-Feb-23 23:28N 51°39' E 003°20'7 8.1
2015-Feb-23 22:33N 51°45' E 003°13'54 7.7
2015-Feb-23 15:33N 52°20' E 002°07'9 9.1
2015-Feb-23 14:33N 52°27' E 001°57'10 9.9
2015-Feb-23 13:33N 52°34' E 001°46'1 1.2
2015-Feb-23 12:33N 52°35' E 001°44'0 0.0
2015-Feb-23 11:33N 52°35' E 001°44'0 0.0
2015-Feb-23 10:33N 52°35' E 001°44'0 0.0
2015-Feb-23 09:33N 52°35' E 001°44'0 0.0
2015-Feb-23 08:33N 52°35' E 001°44'0 0.0
2015-Feb-23 07:33N 52°35' E 001°44'0 0.0
2015-Feb-23 06:33N 52°35' E 001°44'0 0.0
2015-Feb-23 05:33N 52°35' E 001°44'0 0.0
2015-Feb-23 04:33N 52°35' E 001°44'0 0.0
2015-Feb-23 03:33N 52°35' E 001°44'0 0.0
2015-Feb-23 02:33N 52°35' E 001°44'0 0.0
2015-Feb-23 01:33N 52°35' E 001°44'0 0.0
2015-Feb-23 00:33N 52°35' E 001°44'0 0.0
2015-Feb-22 23:33N 52°35' E 001°44'0 0.0
2015-Feb-22 22:33N 52°35' E 001°44'0 0.0
2015-Feb-22 21:33N 52°35' E 001°44'0 0.0
2015-Feb-22 20:33N 52°35' E 001°44'0 0.0
2015-Feb-22 19:33N 52°35' E 001°44'0 0.0
2015-Feb-22 18:33N 52°35' E 001°44'0 0.0
2015-Feb-22 17:33N 52°35' E 001°44'0 0.0
2015-Feb-22 16:33N 52°35' E 001°44'0 0.0
2015-Feb-22 15:33N 52°35' E 001°44'0 0.0
2015-Feb-22 14:33N 52°35' E 001°44'0 0.0
2015-Feb-22 13:33N 52°35' E 001°44'0 0.0
2015-Feb-22 12:33N 52°35' E 001°44'0 0.0
2015-Feb-22 11:33N 52°35' E 001°44'0 0.0
2015-Feb-22 10:33N 52°35' E 001°44'  

Dump ship's entire track history